Time;durP1;ratioP1;P1;durP2;ratioP2;P2;SDS_P1;SDS_P2;PMS_P1;PMS_P2;Temp;Humidity;BMP_temperature;BMP_pressure;BME280_temperature;BME280_humidity;BME280_pressure;Samples;Min_cycle;Max_cycle;Signal;HPM_P1;HPM_P2
2023/09/26 00:02:00;;;;;;;;;;;21.30;49.00;;;;;;5093508;28;19931;-59
2023/09/26 00:04:27;;;;;;;;;;;21.30;49.10;;;;;;5091727;28;20519;-60
2023/09/26 00:06:57;;;;;;;;;;;21.30;49.10;;;;;;5111234;28;19939;-59
2023/09/26 00:09:24;;;;;;;;;;;21.30;49.00;;;;;;5092507;28;20035;-60
2023/09/26 00:11:50;;;;;;;;;;;21.30;49.10;;;;;;5092908;28;19939;-60
2023/09/26 00:14:17;;;;;;;;;;;21.30;49.10;;;;;;5102164;28;19970;-60
2023/09/26 00:16:44;;;;;;;;;;;21.30;49.10;;;;;;5108937;28;19924;-59
2023/09/26 00:19:12;;;;;;;;;;;21.30;49.00;;;;;;5093065;28;19928;-59
2023/09/26 00:21:39;;;;;;;;;;;21.30;49.00;;;;;;5092364;28;20879;-59
2023/09/26 00:24:06;;;;;;;;;;;21.30;48.90;;;;;;5093286;28;19954;-60
2023/09/26 00:26:33;;;;;;;;;;;21.30;48.90;;;;;;5094865;28;19924;-59
2023/09/26 00:29:00;;;;;;;;;;;21.30;48.80;;;;;;5093261;28;19968;-59
2023/09/26 00:31:26;;;;;;;;;;;21.30;48.80;;;;;;5090797;28;19923;-60
2023/09/26 00:33:54;;;;;;;;;;;21.30;48.80;;;;;;5091181;28;19924;-60
2023/09/26 00:36:22;;;;;;;;;;;21.30;48.90;;;;;;5092109;28;19924;-60
2023/09/26 00:38:49;;;;;;;;;;;21.30;48.80;;;;;;5107566;28;19927;-60
2023/09/26 00:41:15;;;;;;;;;;;21.30;48.80;;;;;;5095567;28;19930;-59
2023/09/26 00:43:42;;;;;;;;;;;21.20;48.70;;;;;;5092332;28;19928;-60
2023/09/26 00:46:09;;;;;;;;;;;21.20;48.80;;;;;;5110873;28;20642;-60
2023/09/26 00:48:35;;;;;;;;;;;21.20;48.80;;;;;;5096149;28;19927;-59
2023/09/26 00:51:02;;;;;;;;;;;21.20;48.80;;;;;;5096823;28;19932;-59
2023/09/26 00:53:31;;;;;;;;;;;21.20;48.80;;;;;;5096027;28;19952;-59
2023/09/26 00:55:58;;;;;;;;;;;21.20;48.80;;;;;;5113869;28;20356;-60
2023/09/26 00:58:25;;;;;;;;;;;21.20;48.80;;;;;;5096438;28;19963;-60
2023/09/26 01:00:53;;;;;;;;;;;21.20;48.90;;;;;;5114441;28;19924;-60
2023/09/26 01:03:20;;;;;;;;;;;21.20;48.90;;;;;;5107923;28;20014;-60
2023/09/26 01:05:47;;;;;;;;;;;21.20;48.90;;;;;;5095148;28;19928;-59
2023/09/26 01:08:14;;;;;;;;;;;21.20;48.90;;;;;;5102681;28;19924;-60
2023/09/26 01:10:42;;;;;;;;;;;21.20;48.90;;;;;;5096768;28;19927;-59
2023/09/26 01:13:09;;;;;;;;;;;21.20;48.90;;;;;;5114525;28;19959;-60
2023/09/26 01:15:37;;;;;;;;;;;21.20;48.90;;;;;;5113615;28;19989;-60
2023/09/26 01:18:04;;;;;;;;;;;21.20;48.90;;;;;;5094433;28;19924;-59
2023/09/26 01:20:31;;;;;;;;;;;21.10;48.90;;;;;;5106734;28;19985;-60
2023/09/26 01:22:58;;;;;;;;;;;21.20;48.90;;;;;;5095854;28;19943;-59
2023/09/26 01:25:26;;;;;;;;;;;21.10;48.80;;;;;;5095541;28;19952;-60
2023/09/26 01:27:53;;;;;;;;;;;21.10;48.90;;;;;;5087954;28;19935;-59
2023/09/26 01:30:20;;;;;;;;;;;21.10;48.90;;;;;;5095443;28;20258;-60
2023/09/26 01:32:47;;;;;;;;;;;21.10;48.90;;;;;;5108262;28;19946;-60
2023/09/26 01:35:14;;;;;;;;;;;21.10;48.90;;;;;;5094788;28;19924;-59
2023/09/26 01:37:41;;;;;;;;;;;21.10;48.80;;;;;;5092236;28;20551;-59
2023/09/26 01:40:11;;;;;;;;;;;21.10;48.80;;;;;;5093377;28;20400;-60
2023/09/26 01:42:40;;;;;;;;;;;21.10;48.80;;;;;;5092527;28;19923;-59
2023/09/26 01:45:07;;;;;;;;;;;21.10;48.80;;;;;;5113491;28;19963;-59
2023/09/26 01:47:37;;;;;;;;;;;21.10;48.80;;;;;;5073441;28;19924;-59
2023/09/26 01:50:04;;;;;;;;;;;21.10;48.80;;;;;;5103473;28;19923;-59
2023/09/26 01:52:32;;;;;;;;;;;21.10;48.80;;;;;;5094201;28;19951;-60
2023/09/26 01:54:59;;;;;;;;;;;21.10;48.80;;;;;;5093752;28;19928;-60
2023/09/26 01:57:25;;;;;;;;;;;21.10;48.80;;;;;;5093935;28;20002;-60
2023/09/26 01:59:53;;;;;;;;;;;21.10;48.80;;;;;;5100800;28;19928;-59
2023/09/26 02:02:20;;;;;;;;;;;21.10;48.80;;;;;;5112340;28;19984;-60
2023/09/26 02:04:47;;;;;;;;;;;21.10;48.80;;;;;;5094998;28;19955;-60
2023/09/26 02:07:14;;;;;;;;;;;21.10;48.90;;;;;;5093508;28;19927;-59
2023/09/26 02:09:41;;;;;;;;;;;21.10;48.80;;;;;;5095585;28;20136;-60
2023/09/26 02:12:07;;;;;;;;;;;21.10;48.80;;;;;;5092515;28;20000;-60
2023/09/26 02:14:34;;;;;;;;;;;21.10;48.80;;;;;;5095289;28;19939;-59
2023/09/26 02:17:03;;;;;;;;;;;21.10;48.80;;;;;;5112788;28;19924;-59
2023/09/26 02:19:30;;;;;;;;;;;21.10;48.80;;;;;;5089003;28;20323;-59
2023/09/26 02:21:57;;;;;;;;;;;21.10;48.80;;;;;;5100435;28;19924;-60
2023/09/26 02:24:24;;;;;;;;;;;21.10;48.80;;;;;;5094887;28;19942;-59
2023/09/26 02:26:51;;;;;;;;;;;21.10;48.70;;;;;;5094273;28;20015;-60
2023/09/26 02:29:17;;;;;;;;;;;21.10;48.70;;;;;;5105918;28;19924;-59
2023/09/26 02:31:44;;;;;;;;;;;21.00;48.70;;;;;;5104927;28;19932;-59
2023/09/26 02:34:13;;;;;;;;;;;21.00;48.70;;;;;;5087836;28;19928;-59
2023/09/26 02:36:40;;;;;;;;;;;21.00;48.70;;;;;;5113338;28;20266;-59
2023/09/26 02:39:06;;;;;;;;;;;21.00;48.70;;;;;;5094170;28;19924;-59
2023/09/26 02:41:33;;;;;;;;;;;21.00;48.70;;;;;;5101567;28;19924;-60
2023/09/26 02:44:00;;;;;;;;;;;21.00;48.70;;;;;;5088072;28;19924;-58
2023/09/26 02:46:27;;;;;;;;;;;21.00;48.70;;;;;;5093151;28;20375;-59
2023/09/26 02:48:53;;;;;;;;;;;21.00;48.70;;;;;;5094372;28;19928;-59
2023/09/26 02:51:22;;;;;;;;;;;21.00;48.70;;;;;;5113533;28;19923;-58
2023/09/26 02:53:48;;;;;;;;;;;21.00;48.70;;;;;;5094992;28;19923;-58
2023/09/26 02:56:15;;;;;;;;;;;21.00;48.70;;;;;;5094732;28;19977;-58
2023/09/26 02:58:42;;;;;;;;;;;20.90;48.70;;;;;;5095431;28;19927;-58
2023/09/26 03:01:09;;;;;;;;;;;20.90;48.70;;;;;;5094224;28;19969;-59
2023/09/26 03:03:36;;;;;;;;;;;20.90;48.70;;;;;;5094819;28;19927;-59
2023/09/26 03:06:03;;;;;;;;;;;20.90;48.70;;;;;;5093635;28;19939;-59
2023/09/26 03:08:31;;;;;;;;;;;20.90;48.70;;;;;;5094692;28;19927;-58
2023/09/26 03:10:58;;;;;;;;;;;20.90;48.70;;;;;;5113006;28;19923;-58
2023/09/26 03:13:27;;;;;;;;;;;20.90;48.70;;;;;;5103624;28;19931;-58
2023/09/26 03:15:56;;;;;;;;;;;20.90;48.80;;;;;;5094384;28;19931;-58
2023/09/26 03:18:24;;;;;;;;;;;20.90;48.80;;;;;;5094950;28;19923;-59
2023/09/26 03:20:51;;;;;;;;;;;20.90;48.70;;;;;;5093753;28;19977;-58
2023/09/26 03:23:17;;;;;;;;;;;20.90;48.70;;;;;;5092766;28;19969;-59
2023/09/26 03:25:46;;;;;;;;;;;20.90;48.70;;;;;;5090813;28;19927;-59
2023/09/26 03:28:12;;;;;;;;;;;20.90;48.70;;;;;;5109728;28;19923;-59
2023/09/26 03:30:40;;;;;;;;;;;20.90;48.70;;;;;;5111886;28;19932;-60
2023/09/26 03:33:07;;;;;;;;;;;20.90;48.70;;;;;;5093728;28;19927;-59
2023/09/26 03:35:33;;;;;;;;;;;20.90;48.70;;;;;;5094498;28;19924;-58
2023/09/26 03:38:00;;;;;;;;;;;20.90;48.70;;;;;;5093472;28;19981;-59
2023/09/26 03:40:28;;;;;;;;;;;20.90;48.70;;;;;;5093016;28;20446;-59
2023/09/26 03:42:56;;;;;;;;;;;20.90;48.70;;;;;;5111884;28;19928;-58
2023/09/26 03:45:23;;;;;;;;;;;20.90;48.70;;;;;;5093511;28;19928;-59
2023/09/26 03:47:50;;;;;;;;;;;20.90;48.70;;;;;;5112588;28;19931;-58
2023/09/26 03:50:16;;;;;;;;;;;20.90;48.70;;;;;;5111825;28;19927;-59
2023/09/26 03:52:43;;;;;;;;;;;20.90;48.70;;;;;;5111911;28;19927;-58
2023/09/26 03:55:10;;;;;;;;;;;20.90;48.70;;;;;;5092151;28;20013;-59
2023/09/26 03:57:37;;;;;;;;;;;20.90;48.70;;;;;;5092942;28;20365;-59
2023/09/26 04:00:12;;;;;;;;;;;20.90;48.60;;;;;;5093537;28;19966;-58
2023/09/26 04:02:39;;;;;;;;;;;20.90;48.60;;;;;;5094062;28;20046;-58
2023/09/26 04:05:06;;;;;;;;;;;20.90;48.60;;;;;;5112619;28;19971;-58
2023/09/26 04:07:33;;;;;;;;;;;20.90;48.60;;;;;;5086046;28;19924;-58
2023/09/26 04:10:00;;;;;;;;;;;20.90;48.60;;;;;;5094305;28;19924;-58
2023/09/26 04:12:27;;;;;;;;;;;20.90;48.60;;;;;;5111008;28;19924;-58
2023/09/26 04:14:54;;;;;;;;;;;20.90;48.60;;;;;;5112220;28;19923;-58
2023/09/26 04:17:22;;;;;;;;;;;20.90;48.60;;;;;;5087022;28;19930;-58
2023/09/26 04:19:49;;;;;;;;;;;20.90;49.10;;;;;;5094290;28;19924;-58
2023/09/26 04:22:16;;;;;;;;;;;20.90;48.60;;;;;;5094224;28;19970;-59
2023/09/26 04:24:42;;;;;;;;;;;20.90;48.60;;;;;;5089457;28;19928;-59
2023/09/26 04:27:09;;;;;;;;;;;20.90;48.60;;;;;;5093856;28;19927;-58
2023/09/26 04:29:36;;;;;;;;;;;20.90;48.60;;;;;;5105584;28;19977;-58
2023/09/26 04:32:03;;;;;;;;;;;20.90;48.60;;;;;;5093583;28;19928;-58
2023/09/26 04:34:32;;;;;;;;;;;20.90;48.60;;;;;;5087581;28;19924;-58
2023/09/26 04:36:58;;;;;;;;;;;20.90;48.60;;;;;;5085493;28;19924;-58
2023/09/26 04:39:25;;;;;;;;;;;20.80;48.50;;;;;;5109971;28;19980;-59
2023/09/26 04:41:52;;;;;;;;;;;20.90;48.60;;;;;;5102326;28;19945;-58
2023/09/26 04:44:19;;;;;;;;;;;20.90;48.60;;;;;;5093303;28;19979;-61
2023/09/26 04:46:46;;;;;;;;;;;20.90;48.50;;;;;;5088717;28;19928;-58
2023/09/26 04:49:12;;;;;;;;;;;20.80;48.40;;;;;;5091602;28;20023;-58
2023/09/26 04:51:41;;;;;;;;;;;20.80;48.50;;;;;;5111346;28;19984;-59
2023/09/26 04:54:07;;;;;;;;;;;20.80;48.50;;;;;;5110880;28;19973;-58
2023/09/26 04:56:36;;;;;;;;;;;20.80;48.40;;;;;;5093382;28;19973;-57
2023/09/26 04:59:03;;;;;;;;;;;20.80;48.40;;;;;;5093372;28;19923;-58
2023/09/26 05:01:30;;;;;;;;;;;20.80;48.50;;;;;;5109632;28;20260;-58
2023/09/26 05:03:57;;;;;;;;;;;20.80;48.50;;;;;;5110058;28;19930;-59
2023/09/26 05:06:24;;;;;;;;;;;20.90;48.60;;;;;;5085011;28;20316;-59
2023/09/26 05:08:52;;;;;;;;;;;20.90;48.60;;;;;;5088976;28;19924;-59
2023/09/26 05:11:19;;;;;;;;;;;20.90;48.60;;;;;;5093331;28;20288;-60
2023/09/26 05:13:45;;;;;;;;;;;20.90;48.60;;;;;;5111505;28;19988;-59
2023/09/26 05:16:13;;;;;;;;;;;20.90;48.50;;;;;;5094201;28;19924;-58
2023/09/26 05:18:40;;;;;;;;;;;20.90;48.50;;;;;;5110585;28;20211;-59
2023/09/26 05:21:07;;;;;;;;;;;20.90;48.50;;;;;;5089916;28;19969;-59
2023/09/26 05:23:33;;;;;;;;;;;20.90;48.40;;;;;;5097505;28;19932;-59
2023/09/26 05:26:05;;;;;;;;;;;20.90;48.40;;;;;;5093818;28;19924;-59
2023/09/26 05:28:32;;;;;;;;;;;20.90;48.50;;;;;;5096245;28;20174;-59
2023/09/26 05:30:59;;;;;;;;;;;20.90;48.40;;;;;;5115032;28;19924;-59
2023/09/26 05:33:26;;;;;;;;;;;20.90;48.40;;;;;;5095362;28;19949;-60
2023/09/26 05:35:53;;;;;;;;;;;20.90;48.50;;;;;;5107612;28;19924;-60
2023/09/26 05:38:20;;;;;;;;;;;20.90;48.50;;;;;;5093332;28;19963;-60
2023/09/26 05:40:47;;;;;;;;;;;20.90;48.60;;;;;;5112413;28;20026;-59
2023/09/26 05:43:15;;;;;;;;;;;20.90;48.70;;;;;;5092902;28;19968;-60
2023/09/26 05:45:42;;;;;;;;;;;20.90;48.70;;;;;;5093141;28;19973;-59
2023/09/26 05:48:08;;;;;;;;;;;20.90;48.70;;;;;;5103531;28;19930;-60
2023/09/26 05:50:35;;;;;;;;;;;20.90;48.70;;;;;;5098796;28;19989;-59
2023/09/26 05:53:03;;;;;;;;;;;20.90;48.70;;;;;;5112296;28;20381;-59
2023/09/26 05:55:29;;;;;;;;;;;20.90;48.60;;;;;;5101945;28;19977;-59
2023/09/26 05:57:56;;;;;;;;;;;20.90;48.70;;;;;;5092851;28;20027;-59
2023/09/26 06:00:24;;;;;;;;;;;20.90;48.60;;;;;;5093145;28;20060;-60
2023/09/26 06:02:52;;;;;;;;;;;20.90;48.60;;;;;;5094741;28;19927;-60
2023/09/26 06:05:19;;;;;;;;;;;20.90;48.50;;;;;;5112585;28;19924;-59
2023/09/26 06:07:45;;;;;;;;;;;21.00;48.60;;;;;;5091498;28;19928;-60
2023/09/26 06:10:12;;;;;;;;;;;20.90;48.50;;;;;;5111499;28;19931;-60
2023/09/26 06:12:39;;;;;;;;;;;20.90;48.60;;;;;;5092471;28;19924;-59
2023/09/26 06:15:06;;;;;;;;;;;20.90;48.50;;;;;;5094178;28;19935;-60
2023/09/26 06:17:35;;;;;;;;;;;20.90;48.40;;;;;;5084545;28;19931;-60
2023/09/26 06:20:02;;;;;;;;;;;20.90;48.40;;;;;;5093808;28;19988;-59
2023/09/26 06:22:29;;;;;;;;;;;20.90;48.40;;;;;;5094185;28;19927;-59
2023/09/26 06:24:58;;;;;;;;;;;20.90;48.50;;;;;;5094629;28;19927;-59
2023/09/26 06:27:25;;;;;;;;;;;20.90;48.40;;;;;;5093480;28;19920;-60
2023/09/26 06:29:51;;;;;;;;;;;20.90;48.40;;;;;;5094569;28;19924;-59
2023/09/26 06:32:18;;;;;;;;;;;20.90;48.40;;;;;;5112481;28;19931;-60
2023/09/26 06:34:47;;;;;;;;;;;20.90;48.40;;;;;;5090066;28;20579;-60
2023/09/26 06:37:14;;;;;;;;;;;20.90;48.60;;;;;;5092511;28;19930;-60
2023/09/26 06:39:41;;;;;;;;;;;20.90;48.70;;;;;;5079616;28;19928;-60
2023/09/26 06:42:08;;;;;;;;;;;20.90;48.70;;;;;;5108754;28;19999;-59
2023/09/26 06:44:35;;;;;;;;;;;20.90;48.80;;;;;;5094903;28;19931;-59
2023/09/26 06:47:02;;;;;;;;;;;21.00;48.80;;;;;;5112115;28;19923;-60
2023/09/26 06:49:28;;;;;;;;;;;21.00;48.90;;;;;;5093451;28;19983;-60
2023/09/26 06:51:56;;;;;;;;;;;21.00;49.30;;;;;;5112697;28;19985;-60
2023/09/26 06:54:23;;;;;;;;;;;21.00;48.70;;;;;;5093561;28;19928;-60
2023/09/26 06:56:50;;;;;;;;;;;20.90;48.60;;;;;;5088923;28;20142;-59
2023/09/26 06:59:17;;;;;;;;;;;20.90;48.60;;;;;;5099216;28;19986;-61
2023/09/26 07:01:43;;;;;;;;;;;20.90;48.70;;;;;;5092467;28;19933;-60
2023/09/26 07:04:14;;;;;;;;;;;20.90;48.70;;;;;;5093339;28;19991;-59
2023/09/26 07:06:40;;;;;;;;;;;20.90;48.70;;;;;;5092391;28;19977;-60
2023/09/26 07:09:12;;;;;;;;;;;20.90;48.80;;;;;;5094327;28;19950;-60
2023/09/26 07:11:39;;;;;;;;;;;20.90;48.90;;;;;;5086586;28;19931;-59
2023/09/26 07:14:09;;;;;;;;;;;20.90;48.90;;;;;;5097092;28;19924;-59
2023/09/26 07:16:36;;;;;;;;;;;20.90;48.90;;;;;;5073874;28;19931;-59
2023/09/26 07:19:02;;;;;;;;;;;20.90;48.90;;;;;;5103729;28;20157;-58
2023/09/26 07:21:29;;;;;;;;;;;21.00;49.00;;;;;;5093214;28;19930;-58
2023/09/26 07:23:56;;;;;;;;;;;21.00;49.10;;;;;;5091459;28;19924;-59
2023/09/26 07:26:25;;;;;;;;;;;21.00;49.10;;;;;;5095809;28;19924;-59
2023/09/26 07:28:51;;;;;;;;;;;21.00;49.10;;;;;;5092279;28;19931;-58
2023/09/26 07:31:18;;;;;;;;;;;21.00;49.10;;;;;;5108043;28;19932;-59
2023/09/26 07:33:45;;;;;;;;;;;21.00;49.20;;;;;;5106971;28;19938;-59
2023/09/26 07:36:12;;;;;;;;;;;21.00;49.20;;;;;;5084368;28;19959;-58
2023/09/26 07:38:39;;;;;;;;;;;21.00;49.20;;;;;;5083771;28;20080;-59
2023/09/26 07:41:06;;;;;;;;;;;21.00;49.20;;;;;;5088799;28;19969;-59
2023/09/26 07:43:34;;;;;;;;;;;21.00;49.30;;;;;;5088592;28;19927;-59
2023/09/26 07:46:04;;;;;;;;;;;21.00;49.30;;;;;;5103115;27;19923;-58
2023/09/26 07:48:31;;;;;;;;;;;21.00;49.30;;;;;;5087858;28;20260;-58
2023/09/26 07:50:57;;;;;;;;;;;21.00;49.30;;;;;;5089342;28;19932;-59
2023/09/26 07:53:24;;;;;;;;;;;21.00;49.30;;;;;;5088195;28;20023;-59
2023/09/26 07:55:51;;;;;;;;;;;21.10;49.40;;;;;;5092773;28;19955;-59
2023/09/26 07:58:18;;;;;;;;;;;21.00;49.40;;;;;;5098536;28;19928;-58
2023/09/26 08:00:46;;;;;;;;;;;21.00;49.40;;;;;;5088970;28;19932;-58
2023/09/26 08:03:13;;;;;;;;;;;21.10;49.50;;;;;;5098886;28;19924;-60
2023/09/26 08:05:40;;;;;;;;;;;21.10;49.50;;;;;;5092407;28;19928;-59
2023/09/26 08:08:07;;;;;;;;;;;21.10;49.60;;;;;;5090670;28;19932;-60
2023/09/26 08:10:36;;;;;;;;;;;21.10;49.60;;;;;;5094459;28;19927;-60
2023/09/26 08:13:03;;;;;;;;;;;21.10;49.60;;;;;;5088718;28;19930;-59
2023/09/26 08:15:31;;;;;;;;;;;21.10;49.60;;;;;;5092327;28;19924;-59
2023/09/26 08:17:59;;;;;;;;;;;21.10;49.70;;;;;;5078856;28;19924;-59
2023/09/26 08:20:25;;;;;;;;;;;21.10;49.60;;;;;;5092356;28;20264;-59
2023/09/26 08:22:52;;;;;;;;;;;21.10;49.70;;;;;;5111029;28;19923;-59
2023/09/26 08:25:19;;;;;;;;;;;21.10;49.70;;;;;;5094574;28;19931;-58
2023/09/26 08:27:46;;;;;;;;;;;21.10;49.70;;;;;;5093256;28;19923;-59
2023/09/26 08:30:13;;;;;;;;;;;21.10;49.80;;;;;;5087133;28;19928;-58
2023/09/26 08:32:40;;;;;;;;;;;21.10;49.80;;;;;;5084987;28;19924;-58
2023/09/26 08:35:09;;;;;;;;;;;21.10;49.80;;;;;;5090584;28;19924;-59
2023/09/26 08:37:36;;;;;;;;;;;21.10;49.80;;;;;;5092080;28;19924;-58
2023/09/26 08:40:04;;;;;;;;;;;21.10;49.90;;;;;;5091340;28;20266;-58
2023/09/26 08:42:32;;;;;;;;;;;21.10;50.00;;;;;;5093392;28;19924;-59
2023/09/26 08:44:59;;;;;;;;;;;21.10;50.20;;;;;;5089945;28;19928;-58
2023/09/26 08:47:27;;;;;;;;;;;21.10;50.20;;;;;;5093976;28;19923;-59
2023/09/26 08:49:53;;;;;;;;;;;21.10;50.30;;;;;;5091709;28;19924;-59
2023/09/26 08:52:22;;;;;;;;;;;21.10;50.30;;;;;;5110038;28;19928;-59
2023/09/26 08:54:49;;;;;;;;;;;21.10;50.40;;;;;;5092940;28;19928;-59
2023/09/26 08:57:16;;;;;;;;;;;21.10;50.50;;;;;;5093241;28;19984;-58
2023/09/26 08:59:43;;;;;;;;;;;21.00;50.60;;;;;;5088152;28;20373;-57
2023/09/26 09:02:10;;;;;;;;;;;21.00;50.50;;;;;;5110584;27;19932;-58
2023/09/26 09:04:36;;;;;;;;;;;21.00;50.50;;;;;;5114420;28;19931;-59
2023/09/26 09:07:04;;;;;;;;;;;21.00;50.60;;;;;;5095331;28;20277;-59
2023/09/26 09:09:32;;;;;;;;;;;21.00;50.70;;;;;;5094938;28;19931;-58
2023/09/26 09:11:59;;;;;;;;;;;21.00;50.80;;;;;;5095852;28;19980;-59
2023/09/26 09:14:33;;;;;;;;;;;21.00;50.90;;;;;;5094304;28;19924;-59
2023/09/26 09:17:00;;;;;;;;;;;21.00;50.90;;;;;;5110189;28;19931;-59
2023/09/26 09:19:40;;;;;;;;;;;21.00;51.00;;;;;;5095165;28;19932;-59
2023/09/26 09:22:14;;;;;;;;;;;21.00;51.00;;;;;;5092842;28;19924;-59
2023/09/26 09:24:42;;;;;;;;;;;21.00;51.20;;;;;;5104165;28;19927;-59
2023/09/26 09:27:09;;;;;;;;;;;21.00;51.20;;;;;;5095098;28;20141;-59
2023/09/26 09:29:36;;;;;;;;;;;21.00;51.20;;;;;;5095242;28;19924;-58
2023/09/26 09:32:02;;;;;;;;;;;21.00;51.30;;;;;;5094328;28;19963;-59
2023/09/26 09:34:29;;;;;;;;;;;21.00;51.50;;;;;;5091244;28;20350;-58
2023/09/26 09:36:56;;;;;;;;;;;21.00;51.50;;;;;;5110831;28;19923;-58
2023/09/26 09:39:23;;;;;;;;;;;21.00;51.60;;;;;;5112969;28;19977;-59
2023/09/26 09:41:51;;;;;;;;;;;21.00;51.60;;;;;;5088926;28;19966;-58
2023/09/26 09:44:18;;;;;;;;;;;21.00;51.70;;;;;;5093265;28;19924;-58
2023/09/26 09:46:45;;;;;;;;;;;20.90;51.60;;;;;;5092040;28;20014;-59
2023/09/26 09:49:12;;;;;;;;;;;21.00;51.60;;;;;;5094884;28;19927;-58
2023/09/26 09:51:41;;;;;;;;;;;21.00;51.50;;;;;;5093627;28;19925;-59
2023/09/26 09:54:08;;;;;;;;;;;21.00;51.40;;;;;;5088402;28;19923;-58
2023/09/26 09:56:35;;;;;;;;;;;21.00;51.50;;;;;;5091421;28;19924;-59
2023/09/26 09:59:05;;;;;;;;;;;21.00;51.60;;;;;;5091414;28;19924;-59
2023/09/26 10:01:33;;;;;;;;;;;21.00;51.50;;;;;;5090130;28;20001;-59
2023/09/26 10:04:00;;;;;;;;;;;21.00;51.50;;;;;;5091279;28;19928;-59
2023/09/26 10:06:27;;;;;;;;;;;21.10;51.50;;;;;;5088570;28;19924;-60
2023/09/26 10:08:54;;;;;;;;;;;21.10;51.40;;;;;;5092246;28;20274;-59
2023/09/26 10:11:22;;;;;;;;;;;21.10;51.60;;;;;;5090353;28;19978;-59
2023/09/26 10:13:48;;;;;;;;;;;21.10;51.80;;;;;;5109654;28;19931;-58
2023/09/26 10:16:18;;;;;;;;;;;21.10;51.80;;;;;;5090484;28;19923;-59
2023/09/26 10:18:45;;;;;;;;;;;21.10;52.20;;;;;;5085233;28;19964;-58
2023/09/26 10:21:21;;;;;;;;;;;21.10;52.20;;;;;;5088544;28;20156;-59
2023/09/26 10:24:06;;;;;;;;;;;21.10;52.30;;;;;;5110303;28;19959;-59
2023/09/26 10:26:33;;;;;;;;;;;21.10;52.40;;;;;;5081521;28;19935;-59
2023/09/26 10:29:01;;;;;;;;;;;21.10;52.50;;;;;;5091133;28;19931;-59
2023/09/26 10:31:31;;;;;;;;;;;21.10;52.50;;;;;;5087255;28;19931;-59
2023/09/26 10:33:57;;;;;;;;;;;21.10;52.70;;;;;;5090599;28;20365;-59
2023/09/26 10:36:24;;;;;;;;;;;21.10;52.70;;;;;;5089294;28;19927;-60
2023/09/26 10:38:57;;;;;;;;;;;21.10;52.60;;;;;;5090180;28;19969;-59
2023/09/26 10:41:24;;;;;;;;;;;21.10;52.60;;;;;;5109948;28;19924;-58
2023/09/26 10:43:51;;;;;;;;;;;21.10;52.60;;;;;;5093346;28;19924;-59
2023/09/26 10:46:18;;;;;;;;;;;21.10;52.90;;;;;;5109429;28;19924;-59
2023/09/26 10:48:46;;;;;;;;;;;21.10;52.90;;;;;;5105319;28;19924;-59
2023/09/26 10:51:13;;;;;;;;;;;21.10;53.00;;;;;;5110536;28;19994;-58
2023/09/26 10:53:41;;;;;;;;;;;21.10;53.10;;;;;;5085423;28;19928;-59
2023/09/26 10:56:08;;;;;;;;;;;21.10;53.10;;;;;;5095121;28;19928;-59
2023/09/26 10:58:35;;;;;;;;;;;21.10;53.20;;;;;;5093837;28;19934;-58
2023/09/26 11:01:02;;;;;;;;;;;21.10;53.00;;;;;;5103912;28;19985;-59
2023/09/26 11:03:29;;;;;;;;;;;21.10;53.10;;;;;;5072549;28;19928;-58
2023/09/26 11:05:57;;;;;;;;;;;21.20;53.20;;;;;;5083650;28;19928;-58
2023/09/26 11:08:24;;;;;;;;;;;21.20;53.00;;;;;;5093089;28;19966;-59
2023/09/26 11:10:51;;;;;;;;;;;21.20;52.90;;;;;;5084949;27;19930;-59
2023/09/26 11:13:18;;;;;;;;;;;21.20;52.90;;;;;;5096562;28;19935;-60
2023/09/26 11:15:45;;;;;;;;;;;21.20;52.90;;;;;;5097661;28;19932;-58
2023/09/26 11:18:12;;;;;;;;;;;21.20;52.90;;;;;;5086228;28;20031;-59
2023/09/26 11:20:39;;;;;;;;;;;21.20;52.90;;;;;;5092124;28;19977;-58
2023/09/26 11:23:08;;;;;;;;;;;21.20;52.80;;;;;;5106487;27;19928;-59
2023/09/26 11:25:35;;;;;;;;;;;21.20;52.70;;;;;;5103395;28;19923;-58
2023/09/26 11:28:03;;;;;;;;;;;21.20;52.80;;;;;;5104927;28;19924;-58
2023/09/26 11:30:30;;;;;;;;;;;21.30;52.80;;;;;;5069986;28;19931;-59
2023/09/26 11:32:57;;;;;;;;;;;21.30;52.80;;;;;;5088487;28;19923;-59
2023/09/26 11:35:24;;;;;;;;;;;21.30;52.80;;;;;;5087098;28;19931;-59
2023/09/26 11:37:51;;;;;;;;;;;21.30;52.70;;;;;;5091971;28;19935;-59
2023/09/26 11:40:22;;;;;;;;;;;21.30;52.80;;;;;;5099724;28;19963;-60
2023/09/26 11:42:52;;;;;;;;;;;21.30;52.80;;;;;;5090082;28;20017;-58
2023/09/26 11:45:22;;;;;;;;;;;21.30;52.70;;;;;;5099898;28;19953;-59
2023/09/26 11:47:48;;;;;;;;;;;21.30;53.30;;;;;;5085002;28;19980;-60
2023/09/26 11:50:15;;;;;;;;;;;21.30;52.70;;;;;;5090214;28;19924;-59
2023/09/26 11:52:42;;;;;;;;;;;21.30;52.70;;;;;;5087848;28;20008;-59
2023/09/26 11:55:09;;;;;;;;;;;21.40;52.80;;;;;;5099693;28;19984;-59
2023/09/26 11:57:37;;;;;;;;;;;21.40;52.80;;;;;;5102753;28;20162;-59
2023/09/26 12:00:06;;;;;;;;;;;21.40;52.70;;;;;;5091297;28;19927;-59
2023/09/26 12:02:33;;;;;;;;;;;21.40;52.90;;;;;;5094376;28;19953;-59
2023/09/26 12:05:00;;;;;;;;;;;21.40;52.70;;;;;;5093097;27;19923;-60
2023/09/26 12:07:26;;;;;;;;;;;21.30;52.60;;;;;;5083454;28;19942;-58
2023/09/26 12:09:53;;;;;;;;;;;21.40;52.70;;;;;;5086812;28;19931;-57
2023/09/26 12:12:20;;;;;;;;;;;21.40;52.70;;;;;;5079739;28;19954;-60
2023/09/26 12:14:48;;;;;;;;;;;21.40;52.70;;;;;;5084001;28;19931;-58
2023/09/26 12:17:16;;;;;;;;;;;21.40;52.70;;;;;;5099752;28;20016;-59
2023/09/26 12:19:42;;;;;;;;;;;21.40;52.70;;;;;;5089029;28;19938;-57
2023/09/26 12:22:09;;;;;;;;;;;21.40;52.60;;;;;;5108617;28;19935;-59
2023/09/26 12:24:36;;;;;;;;;;;21.40;52.60;;;;;;5086683;28;19932;-59
2023/09/26 12:27:04;;;;;;;;;;;21.40;53.20;;;;;;5091725;28;19931;-58
2023/09/26 12:29:30;;;;;;;;;;;21.40;52.70;;;;;;5108181;28;19924;-60
2023/09/26 12:32:00;;;;;;;;;;;21.40;52.70;;;;;;5108204;28;19924;-58
2023/09/26 12:34:27;;;;;;;;;;;21.40;52.70;;;;;;5112023;27;19954;-59
2023/09/26 12:36:54;;;;;;;;;;;21.40;52.60;;;;;;5098519;28;19924;-58
2023/09/26 12:39:21;;;;;;;;;;;21.40;52.60;;;;;;5087902;28;19924;-60
2023/09/26 12:41:48;;;;;;;;;;;21.40;52.60;;;;;;5089816;28;20019;-59
2023/09/26 12:44:14;;;;;;;;;;;21.40;52.60;;;;;;5106577;28;19931;-59
2023/09/26 12:46:41;;;;;;;;;;;21.50;52.80;;;;;;5091827;28;19928;-58
2023/09/26 12:49:10;;;;;;;;;;;21.50;52.70;;;;;;5090450;28;19930;-59
2023/09/26 12:51:37;;;;;;;;;;;21.50;52.80;;;;;;5096105;28;20370;-59
2023/09/26 12:54:04;;;;;;;;;;;21.50;52.70;;;;;;5112654;28;19924;-61
2023/09/26 12:56:31;;;;;;;;;;;21.50;52.70;;;;;;5092453;28;19977;-59
2023/09/26 12:58:57;;;;;;;;;;;21.50;52.70;;;;;;5094127;28;19927;-59
2023/09/26 13:01:24;;;;;;;;;;;21.50;52.70;;;;;;5102704;28;19930;-59
2023/09/26 13:03:51;;;;;;;;;;;21.50;52.70;;;;;;5112234;28;19923;-60
2023/09/26 13:06:19;;;;;;;;;;;21.50;52.60;;;;;;5094703;28;19924;-60
2023/09/26 13:08:46;;;;;;;;;;;21.50;52.60;;;;;;5101794;28;19928;-59
2023/09/26 13:11:12;;;;;;;;;;;21.50;52.60;;;;;;5087882;28;19932;-59
2023/09/26 13:13:39;;;;;;;;;;;21.50;52.60;;;;;;5095765;28;19928;-59
2023/09/26 13:16:06;;;;;;;;;;;21.50;52.60;;;;;;5090119;28;19973;-59
2023/09/26 13:18:33;;;;;;;;;;;21.50;52.60;;;;;;5098161;28;20037;-59
2023/09/26 13:20:59;;;;;;;;;;;21.50;52.60;;;;;;5091774;28;19924;-59
2023/09/26 13:23:28;;;;;;;;;;;21.50;52.60;;;;;;5102812;28;19982;-59
2023/09/26 13:25:54;;;;;;;;;;;21.50;52.60;;;;;;5094262;28;19924;-59
2023/09/26 13:28:21;;;;;;;;;;;21.60;52.70;;;;;;5087679;28;19931;-59
2023/09/26 13:30:48;;;;;;;;;;;21.50;52.60;;;;;;5077401;28;20365;-59
2023/09/26 13:33:15;;;;;;;;;;;21.60;52.70;;;;;;5096099;28;19982;-59
2023/09/26 13:35:42;;;;;;;;;;;21.60;52.70;;;;;;5095208;28;19923;-59
2023/09/26 13:38:09;;;;;;;;;;;21.60;52.70;;;;;;5094722;28;20298;-59
2023/09/26 13:40:37;;;;;;;;;;;21.60;52.70;;;;;;5094285;28;19923;-59
2023/09/26 13:43:04;;;;;;;;;;;21.60;52.70;;;;;;5090607;28;19927;-60
2023/09/26 13:45:30;;;;;;;;;;;21.60;52.70;;;;;;5102517;27;19931;-59
2023/09/26 13:47:57;;;;;;;;;;;21.60;52.70;;;;;;5091377;28;19974;-60
2023/09/26 13:50:24;;;;;;;;;;;21.60;52.80;;;;;;5112077;28;19935;-60
2023/09/26 13:52:51;;;;;;;;;;;21.60;52.70;;;;;;5089481;28;19947;-60
2023/09/26 13:55:17;;;;;;;;;;;21.60;52.80;;;;;;5089337;28;19943;-59
2023/09/26 13:57:45;;;;;;;;;;;21.60;52.70;;;;;;5089190;28;19924;-59
2023/09/26 14:00:13;;;;;;;;;;;21.60;52.70;;;;;;5101816;28;19936;-60
2023/09/26 14:02:40;;;;;;;;;;;21.60;52.80;;;;;;5109442;28;19928;-60
2023/09/26 14:05:07;;;;;;;;;;;21.60;52.80;;;;;;5098450;28;20381;-59
2023/09/26 14:07:34;;;;;;;;;;;21.60;52.70;;;;;;5088457;28;19947;-60
2023/09/26 14:10:01;;;;;;;;;;;21.60;52.80;;;;;;5096705;28;19931;-60
2023/09/26 14:12:28;;;;;;;;;;;21.60;52.80;;;;;;5092630;28;19939;-60
2023/09/26 14:14:56;;;;;;;;;;;21.60;52.80;;;;;;5109743;27;19930;-58
2023/09/26 14:17:23;;;;;;;;;;;21.60;52.80;;;;;;5091237;28;19931;-58